Time;durP1;ratioP1;P1;durP2;ratioP2;P2;SDS_P1;SDS_P2;PMS_P1;PMS_P2;Temp;Humidity;BMP_temperature;BMP_pressure;BME280_temperature;BME280_humidity;BME280_pressure;Samples;Min_cycle;Max_cycle;Signal;HPM_P1;HPM_P2
2021/12/13 00:00:51;;;;;;;2.87;1.60;;;5.20;89.10;;;;;;5019843;28;20204;-88
2021/12/13 00:03:26;;;;;;;1.60;1.47;;;5.30;88.40;;;;;;5026005;28;20235;-87
2021/12/13 00:05:56;;;;;;;1.70;1.33;;;5.20;88.90;;;;;;5015130;28;20284;-83
2021/12/13 00:08:37;;;;;;;2.37;1.30;;;5.10;89.10;;;;;;5012650;28;20235;-88
2021/12/13 00:11:10;;;;;;;1.50;1.40;;;5.10;89.00;;;;;;5015279;28;20667;-86
2021/12/13 00:13:41;;;;;;;1.47;1.30;;;5.10;89.00;;;;;;5012340;28;20620;-85
2021/12/13 00:16:09;;;;;;;1.10;1.07;;;5.10;89.00;;;;;;5013414;28;20223;-88
2021/12/13 00:18:42;;;;;;;1.30;1.20;;;5.20;88.60;;;;;;5011911;28;20839;-85
2021/12/13 00:21:13;;;;;;;1.43;1.30;;;5.30;86.70;;;;;;5013266;28;20533;-87
2021/12/13 00:23:48;;;;;;;2.77;1.40;;;5.30;86.70;;;;;;5013015;28;20246;-85
2021/12/13 00:26:23;;;;;;;2.10;1.50;;;5.20;87.60;;;;;;5012643;28;20204;-86
2021/12/13 00:28:51;;;;;;;1.70;1.30;;;5.20;87.20;;;;;;5009912;28;20776;-87
2021/12/13 00:31:34;;;;;;;2.30;1.50;;;5.20;88.90;;;;;;5010484;28;20207;-85
2021/12/13 00:34:28;;;;;;;1.27;1.10;;;5.20;88.30;;;;;;5010590;28;20698;-86
2021/12/13 00:36:59;;;;;;;1.60;1.30;;;5.10;89.00;;;;;;5014041;28;20253;-86
2021/12/13 00:39:31;;;;;;;3.17;1.57;;;5.20;88.60;;;;;;5013695;28;20242;-83
2021/12/13 00:41:59;;;;;;;2.63;1.23;;;5.30;89.20;;;;;;5015837;28;20199;-87
2021/12/13 00:44:30;;;;;;;1.83;1.20;;;5.20;89.90;;;;;;5014446;28;20235;-83
2021/12/13 00:47:02;;;;;;;3.77;1.37;;;5.20;90.50;;;;;;5011481;28;20282;-87
2021/12/13 00:49:32;;;;;;;1.97;1.20;;;5.30;90.80;;;;;;5011985;28;20227;-84
2021/12/13 00:52:02;;;;;;;3.90;1.30;;;5.20;91.10;;;;;;5012761;28;20191;-84
2021/12/13 00:54:33;;;;;;;1.47;1.20;;;5.20;91.40;;;;;;5012716;28;20231;-84
2021/12/13 00:57:37;;;;;;;1.60;1.30;;;5.10;92.40;;;;;;5011880;28;20198;-84
2021/12/13 01:00:10;;;;;;;1.27;1.17;;;5.00;93.10;;;;;;5004168;28;20242;-84
2021/12/13 01:02:43;;;;;;;1.83;1.33;;;4.90;94.20;;;;;;5008878;28;20646;-84
2021/12/13 01:05:14;;;;;;;1.30;1.10;;;5.00;95.10;;;;;;5011748;28;20199;-84
2021/12/13 01:08:02;;;;;;;1.30;1.10;;;4.90;95.00;;;;;;5017907;28;20203;-84
2021/12/13 01:11:05;;;;;;;2.10;1.30;;;4.80;95.50;;;;;;5012282;28;20211;-85
2021/12/13 01:13:38;;;;;;;2.50;1.40;;;4.70;96.40;;;;;;5007888;28;20253;-84
2021/12/13 01:16:18;;;;;;;2.07;1.30;;;4.80;96.70;;;;;;5004880;28;20575;-85
2021/12/13 01:19:02;;;;;;;2.37;1.17;;;4.80;97.10;;;;;;5009739;28;20709;-84
2021/12/13 01:21:41;;;;;;;1.30;1.20;;;4.90;97.20;;;;;;5012760;28;20199;-84
2021/12/13 01:24:13;;;;;;;2.20;1.20;;;4.80;97.10;;;;;;5011371;28;20685;-85
2021/12/13 01:26:45;;;;;;;3.40;1.47;;;4.80;97.20;;;;;;5009918;28;20636;-85
2021/12/13 01:29:15;;;;;;;2.13;1.10;;;4.80;97.10;;;;;;5012278;28;20227;-84
2021/12/13 01:31:45;;;;;;;1.30;1.20;;;4.80;97.50;;;;;;5011661;28;20202;-85
2021/12/13 01:34:13;;;;;;;1.20;1.10;;;4.90;97.30;;;;;;5012230;28;20309;-85
2021/12/13 01:36:49;;;;;;;1.97;1.10;;;5.00;97.60;;;;;;5011278;28;20206;-84
2021/12/13 01:39:19;;;;;;;3.00;1.53;;;4.90;97.20;;;;;;5007294;28;20237;-84
2021/12/13 01:41:49;;;;;;;1.70;1.40;;;4.80;97.60;;;;;;5011461;28;20207;-84
2021/12/13 01:44:19;;;;;;;3.47;1.40;;;4.70;97.60;;;;;;5008342;28;20291;-84
2021/12/13 01:46:49;;;;;;;1.90;1.20;;;4.70;98.30;;;;;;5010858;28;20206;-84
2021/12/13 01:49:19;;;;;;;2.43;1.17;;;4.80;98.40;;;;;;5006383;28;20235;-85
2021/12/13 01:51:47;;;;;;;2.80;1.43;;;4.80;98.10;;;;;;5006566;28;20195;-88
2021/12/13 01:54:18;;;;;;;1.23;1.13;;;4.70;98.40;;;;;;5009642;28;20227;-85
2021/12/13 01:56:53;;;;;;;1.40;1.10;;;4.70;98.60;;;;;;5011224;28;20667;-84
2021/12/13 01:59:49;;;;;;;1.40;1.30;;;4.70;98.90;;;;;;5009793;28;20233;-87
2021/12/13 02:02:28;;;;;;;1.10;1.00;;;4.70;98.80;;;;;;5011468;28;20233;-84
2021/12/13 02:05:00;;;;;;;2.47;1.30;;;4.80;98.60;;;;;;4993706;28;20230;-84
2021/12/13 02:07:37;;;;;;;1.33;1.20;;;4.90;98.50;;;;;;5009483;28;20203;-85
2021/12/13 02:10:09;;;;;;;1.00;1.00;;;4.80;98.40;;;;;;5015307;28;21109;-85
2021/12/13 02:12:42;;;;;;;1.07;0.87;;;4.90;98.60;;;;;;5010963;28;20395;-84
2021/12/13 02:17:55;;;;;;;1.70;1.37;;;4.90;98.60;;;;;;5010670;28;20206;-85
2021/12/13 02:20:28;;;;;;;1.00;1.00;;;4.80;98.50;;;;;;5013368;28;20592;-83
2021/12/13 02:22:57;;;;;;;1.37;0.93;;;4.80;98.70;;;;;;5003594;28;20658;-84
2021/12/13 02:25:29;;;;;;;1.53;1.43;;;4.90;98.90;;;;;;5014403;28;20207;-88
2021/12/13 02:28:02;;;;;;;0.87;0.80;;;4.90;98.80;;;;;;5014643;28;20235;-83
2021/12/13 02:30:38;;;;;;;1.50;1.40;;;4.90;98.70;;;;;;5023059;28;20207;-84
2021/12/13 02:33:07;;;;;;;2.23;1.10;;;4.80;98.80;;;;;;5013183;28;20937;-84
2021/12/13 02:35:38;;;;;;;1.40;1.10;;;4.70;98.80;;;;;;5010837;28;20206;-84
2021/12/13 02:38:09;;;;;;;1.60;1.30;;;4.70;99.30;;;;;;5010044;28;20297;-84
2021/12/13 02:40:36;;;;;;;1.17;0.87;;;4.80;99.60;;;;;;5010703;28;20578;-85
2021/12/13 02:43:05;;;;;;;1.30;1.20;;;4.80;99.30;;;;;;5010259;28;20230;-86
2021/12/13 02:45:42;;;;;;;1.13;1.03;;;4.80;99.40;;;;;;5010735;28;20210;-88
2021/12/13 02:48:14;;;;;;;1.20;1.07;;;4.80;99.20;;;;;;5009509;28;20635;-86
2021/12/13 02:50:48;;;;;;;1.00;1.00;;;4.90;99.10;;;;;;5011289;28;20210;-85
2021/12/13 02:53:21;;;;;;;1.10;1.00;;;4.90;99.00;;;;;;5011138;28;20241;-85
2021/12/13 02:55:48;;;;;;;1.43;1.00;;;4.80;98.80;;;;;;5010943;28;20198;-85
2021/12/13 02:58:19;;;;;;;1.07;1.00;;;4.90;99.30;;;;;;5010552;28;20230;-86
2021/12/13 03:00:54;;;;;;;1.00;0.90;;;4.90;99.20;;;;;;5011512;28;20762;-89
2021/12/13 03:03:25;;;;;;;1.13;1.00;;;5.00;99.20;;;;;;5008756;28;20222;-86
2021/12/13 03:05:55;;;;;;;1.57;1.10;;;5.00;99.10;;;;;;5016923;28;20563;-83
2021/12/13 03:08:30;;;;;;;1.37;1.13;;;5.00;98.80;;;;;;5016010;28;20233;-88
2021/12/13 03:11:00;;;;;;;1.50;1.03;;;5.00;98.80;;;;;;4995393;28;20206;-86
2021/12/13 03:13:31;;;;;;;0.97;0.97;;;5.10;98.90;;;;;;5017665;28;20226;-85
2021/12/13 03:16:02;;;;;;;1.10;1.00;;;5.10;98.90;;;;;;5020631;28;20195;-83
2021/12/13 03:18:42;;;;;;;1.30;1.20;;;4.90;98.70;;;;;;5017827;28;20223;-86
2021/12/13 03:21:46;;;;;;;1.50;1.27;;;5.00;99.10;;;;;;5018520;28;20207;-84
2021/12/13 03:24:31;;;;;;;1.23;1.13;;;4.90;99.00;;;;;;5002078;28;20277;-87
2021/12/13 03:27:12;;;;;;;1.50;1.37;;;4.80;99.20;;;;;;5008600;28;20600;-86
2021/12/13 03:29:47;;;;;;;1.20;1.10;;;4.70;99.80;;;;;;5010271;28;20237;-84
2021/12/13 03:32:17;;;;;;;1.17;1.10;;;4.90;99.90;;;;;;5011666;28;20202;-84
2021/12/13 03:34:53;;;;;;;0.93;0.87;;;4.90;99.70;;;;;;5015384;28;20230;-85
2021/12/13 03:37:23;;;;;;;1.30;1.20;;;5.00;99.60;;;;;;5016323;28;20199;-85
2021/12/13 03:39:56;;;;;;;1.80;1.40;;;4.80;99.50;;;;;;5013267;28;20219;-86
2021/12/13 03:42:26;;;;;;;1.80;1.23;;;4.90;99.90;;;;;;5013746;28;20273;-87
2021/12/13 03:44:55;;;;;;;1.30;1.17;;;4.90;99.60;;;;;;5014193;28;20227;-87
2021/12/13 03:47:29;;;;;;;1.30;1.20;;;4.80;99.50;;;;;;5012395;28;20557;-89
2021/12/13 03:50:01;;;;;;;1.53;1.03;;;4.80;99.80;;;;;;5009153;28;20235;-85
2021/12/13 03:52:31;;;;;;;1.87;1.40;;;4.80;99.90;;;;;;5012984;28;20663;-86
2021/12/13 03:55:02;;;;;;;1.63;1.30;;;4.80;99.90;;;;;;5013086;28;20682;-85
2021/12/13 03:57:30;;;;;;;1.17;1.03;;;4.90;99.90;;;;;;5014689;28;20200;-86
2021/12/13 04:00:00;;;;;;;2.23;1.10;;;5.00;99.90;;;;;;5013395;28;20242;-85
2021/12/13 04:02:31;;;;;;;1.63;1.30;;;4.90;99.90;;;;;;5013739;28;20583;-85
2021/12/13 04:05:01;;;;;;;1.00;1.00;;;5.00;99.90;;;;;;5020054;28;20233;-84
2021/12/13 04:07:31;;;;;;;1.67;1.20;;;4.90;99.90;;;;;;5013351;28;20203;-84
2021/12/13 04:10:04;;;;;;;1.20;1.03;;;4.80;99.90;;;;;;5012877;28;20235;-86
2021/12/13 04:12:39;;;;;;;1.40;1.20;;;4.90;99.90;;;;;;5013880;28;20213;-85
2021/12/13 04:15:16;;;;;;;1.67;1.10;;;5.10;99.90;;;;;;5012752;28;20644;-87
2021/12/13 04:17:57;;;;;;;1.37;1.27;;;5.10;99.90;;;;;;5010617;28;20210;-84
2021/12/13 04:20:30;;;;;;;1.30;1.13;;;5.00;99.90;;;;;;5013642;28;20223;-84
2021/12/13 04:23:04;;;;;;;1.30;1.20;;;5.10;99.90;;;;;;5011781;28;20199;-84
2021/12/13 04:25:36;;;;;;;3.70;1.43;;;5.10;99.90;;;;;;5012657;28;20602;-85
2021/12/13 04:28:07;;;;;;;1.70;1.60;;;5.00;99.90;;;;;;5011833;28;20203;-87
2021/12/13 04:30:40;;;;;;;2.40;1.10;;;5.00;99.90;;;;;;5012747;28;20214;-88
2021/12/13 04:33:09;;;;;;;1.43;1.20;;;5.00;99.90;;;;;;5012434;28;20694;-87
2021/12/13 04:35:44;;;;;;;1.37;1.27;;;5.20;99.90;;;;;;5014937;28;20192;-87
2021/12/13 04:38:16;;;;;;;1.53;1.20;;;5.20;99.90;;;;;;5010853;28;20226;-87
2021/12/13 04:40:45;;;;;;;1.97;1.30;;;5.10;99.90;;;;;;5008752;28;20334;-89
2021/12/13 04:43:15;;;;;;;2.03;1.30;;;5.10;99.90;;;;;;5010355;28;20227;-87
2021/12/13 04:45:44;;;;;;;1.17;1.07;;;5.20;99.90;;;;;;5012220;28;20203;-86
2021/12/13 04:48:13;;;;;;;1.20;1.10;;;5.20;99.90;;;;;;5011723;28;20223;-86
2021/12/13 04:50:48;;;;;;;2.93;1.40;;;5.20;99.90;;;;;;5011978;28;20596;-86
2021/12/13 04:53:21;;;;;;;1.20;1.10;;;5.30;99.90;;;;;;5008703;28;20246;-86
2021/12/13 04:55:50;;;;;;;1.77;1.20;;;5.30;99.90;;;;;;5013077;28;20199;-86
2021/12/13 04:58:19;;;;;;;1.47;1.10;;;5.40;99.90;;;;;;5014678;28;20230;-87
2021/12/13 05:00:50;;;;;;;1.10;1.00;;;5.30;99.90;;;;;;4996939;28;20713;-86
2021/12/13 05:03:20;;;;;;;1.80;1.10;;;5.30;99.90;;;;;;5011905;28;20230;-88
2021/12/13 05:05:47;;;;;;;1.20;1.10;;;5.20;99.90;;;;;;5012252;28;20222;-86
2021/12/13 05:08:16;;;;;;;1.10;1.00;;;5.20;99.90;;;;;;5011121;28;20227;-87
2021/12/13 05:10:48;;;;;;;1.40;1.23;;;5.30;99.90;;;;;;5010579;28;20212;-86
2021/12/13 05:13:20;;;;;;;1.20;1.10;;;5.40;99.90;;;;;;5010173;28;20234;-86
2021/12/13 05:15:55;;;;;;;2.10;1.27;;;5.40;99.90;;;;;;5010430;28;20559;-86
2021/12/13 05:18:27;;;;;;;1.50;1.40;;;5.40;99.90;;;;;;5011487;28;20238;-87
2021/12/13 05:21:03;;;;;;;1.30;1.20;;;5.40;99.90;;;;;;5009420;28;20230;-90
2021/12/13 05:23:33;;;;;;;1.23;1.13;;;5.40;99.90;;;;;;5012426;28;20231;-85
2021/12/13 05:26:04;;;;;;;1.87;1.67;;;5.40;99.90;;;;;;5012383;28;20203;-85
2021/12/13 05:28:39;;;;;;;2.20;1.53;;;5.40;99.90;;;;;;5011990;28;20227;-86
2021/12/13 05:31:10;;;;;;;2.07;1.80;;;5.40;99.90;;;;;;5012107;28;20205;-86
2021/12/13 05:33:40;;;;;;;2.00;1.80;;;5.40;99.90;;;;;;5011527;28;20306;-86
2021/12/13 05:36:18;;;;;;;1.67;1.57;;;5.40;99.90;;;;;;5012479;28;20191;-85
2021/12/13 05:38:47;;;;;;;1.57;1.40;;;5.40;99.90;;;;;;5022429;28;20233;-87
2021/12/13 05:41:22;;;;;;;1.50;1.40;;;5.40;99.90;;;;;;5016331;28;20231;-86
2021/12/13 05:43:53;;;;;;;1.83;1.40;;;5.40;99.90;;;;;;5019567;28;20222;-85
2021/12/13 05:46:23;;;;;;;1.83;1.47;;;5.50;99.90;;;;;;5014645;28;20196;-85
2021/12/13 05:48:53;;;;;;;1.77;1.50;;;5.30;99.90;;;;;;5014480;28;20229;-86
2021/12/13 05:51:28;;;;;;;2.00;1.43;;;5.30;99.90;;;;;;5004832;28;20204;-85
2021/12/13 05:57:19;;;;;;;2.57;1.33;;;5.60;99.90;;;;;;5002414;28;20226;-86
2021/12/13 06:03:16;;;;;;;2.77;1.60;;;5.70;99.90;;;;;;4999666;28;20202;-86
2021/12/13 06:05:45;;;;;;;1.97;1.60;;;5.80;99.90;;;;;;5024508;28;20256;-85
2021/12/13 06:08:18;;;;;;;3.67;1.80;;;5.70;99.90;;;;;;5014922;28;20674;-86
2021/12/13 06:11:09;;;;;;;4.00;1.70;;;5.70;99.90;;;;;;5015001;28;20214;-85
2021/12/13 06:20:26;;;;;;;1.57;1.47;;;5.60;99.90;;;;;;5013559;28;20289;-87
2021/12/13 06:23:05;;;;;;;2.50;1.97;;;5.60;99.90;;;;;;5011151;28;20285;-85
2021/12/13 06:25:50;;;;;;;2.10;1.80;;;5.60;99.90;;;;;;5016894;28;20196;-95
2021/12/13 06:28:22;;;;;;;3.23;1.90;;;5.70;99.90;;;;;;4993340;28;20239;-84
2021/12/13 06:30:58;;;;;;;1.70;1.60;;;5.70;99.90;;;;;;5016698;28;20554;-86
2021/12/13 06:33:26;;;;;;;2.57;1.60;;;5.70;99.90;;;;;;5017418;28;20237;-85
2021/12/13 06:35:56;;;;;;;2.87;1.87;;;5.70;99.90;;;;;;5020788;28;20206;-85
2021/12/13 06:38:47;;;;;;;2.23;1.50;;;5.60;99.90;;;;;;5007305;28;20261;-87
2021/12/13 06:41:21;;;;;;;2.73;1.90;;;5.50;99.90;;;;;;5022963;28;20235;-86
2021/12/13 06:43:52;;;;;;;2.30;1.80;;;5.40;99.90;;;;;;5009005;28;20598;-84
2021/12/13 06:46:46;;;;;;;2.83;1.90;;;5.50;99.90;;;;;;5001314;28;20206;-86
2021/12/13 06:49:19;;;;;;;2.53;2.00;;;5.50;99.90;;;;;;5017206;28;20249;-87
2021/12/13 06:51:51;;;;;;;3.00;1.93;;;5.70;99.90;;;;;;5014252;28;20203;-89
2021/12/13 06:54:31;;;;;;;3.13;1.93;;;5.70;99.90;;;;;;5012628;28;20227;-88
2021/12/13 06:57:11;;;;;;;2.03;1.60;;;5.80;99.90;;;;;;4999072;28;20195;-89
2021/12/13 06:59:46;;;;;;;3.37;2.00;;;5.70;99.90;;;;;;4997943;28;20709;-86
2021/12/13 07:02:16;;;;;;;3.10;2.07;;;5.80;99.90;;;;;;4995729;28;20218;-86
2021/12/13 07:05:00;;;;;;;2.27;1.93;;;5.80;99.90;;;;;;5012310;28;20219;-87
2021/12/13 07:07:34;;;;;;;5.67;2.00;;;5.80;99.90;;;;;;5002753;28;20230;-85
2021/12/13 07:10:08;;;;;;;2.10;1.90;;;5.80;99.90;;;;;;5011096;28;20226;-89
2021/12/13 07:12:46;;;;;;;3.73;1.90;;;5.80;99.90;;;;;;5012270;28;20203;-86
2021/12/13 07:15:30;;;;;;;2.60;1.80;;;5.80;99.90;;;;;;5013813;28;20227;-87
2021/12/13 07:18:03;;;;;;;3.33;2.00;;;5.80;99.90;;;;;;5017402;28;20191;-87
2021/12/13 07:20:38;;;;;;;3.13;2.10;;;5.80;99.90;;;;;;5018845;28;20206;-87
2021/12/13 07:23:12;;;;;;;2.27;2.00;;;5.80;99.90;;;;;;5016070;28;20187;-87
2021/12/13 07:25:53;;;;;;;3.50;2.00;;;5.80;99.90;;;;;;5001418;28;20261;-89
2021/12/13 07:28:33;;;;;;;3.00;2.13;;;5.80;99.90;;;;;;5018174;28;20231;-87
2021/12/13 07:31:25;;;;;;;2.93;2.13;;;5.70;99.90;;;;;;5019517;28;20222;-86
2021/12/13 07:33:52;;;;;;;3.90;2.20;;;5.70;99.90;;;;;;5013657;28;20863;-86
2021/12/13 07:36:28;;;;;;;7.27;2.57;;;5.80;99.90;;;;;;5017240;28;20214;-87
2021/12/13 07:39:00;;;;;;;2.90;2.50;;;5.80;99.90;;;;;;4980584;28;20229;-89
2021/12/13 07:48:09;;;;;;;4.57;2.57;;;5.90;99.90;;;;;;5022087;28;20165;-88
2021/12/13 07:50:39;;;;;;;3.80;2.77;;;5.90;99.90;;;;;;5021750;28;20219;-88
2021/12/13 07:53:18;;;;;;;6.90;3.23;;;5.80;99.90;;;;;;5021152;28;20192;-88
2021/12/13 07:59:13;;;;;;;4.90;3.17;;;5.80;99.90;;;;;;5018291;28;20199;-92
2021/12/13 08:01:46;;;;;;;9.50;3.60;;;5.80;99.90;;;;;;5019264;28;20222;-90
2021/12/13 08:04:17;;;;;;;3.50;3.17;;;5.90;99.90;;;;;;5012229;28;20276;-90
2021/12/13 08:06:47;;;;;;;4.60;2.93;;;5.80;99.90;;;;;;5010311;28;20184;-91
2021/12/13 08:09:36;;;;;;;4.47;3.50;;;6.00;99.90;;;;;;5014667;28;20233;-88
2021/12/13 08:12:16;;;;;;;4.60;3.40;;;6.10;99.90;;;;;;4999231;28;20209;-91
2021/12/13 08:14:47;;;;;;;3.33;3.03;;;6.10;99.90;;;;;;5015552;28;20234;-90
2021/12/13 08:17:19;;;;;;;4.73;3.20;;;6.10;99.90;;;;;;5017692;28;20671;-90
2021/12/13 08:23:15;;;;;;;4.03;3.10;;;6.30;99.90;;;;;;5017697;28;20217;-88
2021/12/13 08:25:49;;;;;;;4.23;3.37;;;6.30;99.90;;;;;;5003368;28;20195;-89
2021/12/13 08:28:22;;;;;;;6.00;3.20;;;6.50;99.90;;;;;;5000724;28;20227;-89
2021/12/13 08:33:42;;;;;;;6.00;3.30;;;6.50;99.50;;;;;;5016213;28;20215;-90
2021/12/13 08:36:40;;;;;;;6.20;3.63;;;6.60;99.90;;;;;;5020938;28;20218;-91
2021/12/13 08:39:10;;;;;;;4.20;3.40;;;6.60;99.50;;;;;;5019720;28;20627;-89
2021/12/13 08:41:41;;;;;;;4.53;3.10;;;6.50;99.50;;;;;;5021443;28;20237;-87
2021/12/13 08:46:48;;;;;;;4.97;3.10;;;6.70;99.70;;;;;;5343737;22;20291;-86
2021/12/13 08:49:21;;;;;;;4.97;3.60;;;6.80;99.20;;;;;;5046704;28;20206;-90
2021/12/13 08:51:54;;;;;;;6.50;3.40;;;6.90;98.80;;;;;;5007790;28;20256;-90
2021/12/13 08:54:21;;;;;;;4.97;3.80;;;6.80;98.40;;;;;;5020094;28;20209;-89
2021/12/13 08:56:51;;;;;;;4.85;3.65;;;6.70;98.70;;;;;;5003825;28;20265;-90
2021/12/13 08:59:23;;;;;;;4.88;3.30;;;6.70;99.00;;;;;;4977035;28;20568;-89
2021/12/13 09:01:58;;;;;;;5.50;3.88;;;6.70;99.10;;;;;;5023394;28;20277;-86
2021/12/13 09:04:27;;;;;;;5.13;3.80;;;6.80;99.40;;;;;;5021891;28;20202;-87
2021/12/13 14:17:06;;;;;;;10.35;7.70;;;8.20;96.90;;;;;;6086050;22;20228;-87
2021/12/13 14:19:36;;;;;;;10.68;7.70;;;8.20;97.00;;;;;;5041702;28;20206;-86
2021/12/13 14:22:29;;;;;;;8.77;7.65;;;8.20;96.60;;;;;;5040904;28;20214;-86
2021/12/13 14:24:57;;;;;;;8.95;7.32;;;8.10;96.80;;;;;;5042924;28;20328;-89
2021/12/13 14:27:28;;;;;;;9.10;7.88;;;8.00;96.80;;;;;;5042153;28;20225;-87
2021/12/13 15:09:39;;;;;;;15.43;10.65;;;7.40;97.90;;;;;;6112805;22;20176;-89
2021/12/13 15:12:12;;;;;;;14.52;10.90;;;7.60;98.50;;;;;;4986411;28;20201;-90
2021/12/13 15:18:33;;;;;;;10.75;9.25;;;7.70;98.20;;;;;;5015492;28;20187;-90
2021/12/13 15:24:31;;;;;;;13.23;11.57;;;7.70;97.80;;;;;;5005979;28;20218;-90
2021/12/13 15:30:40;;;;;;;11.95;10.18;;;7.70;97.80;;;;;;5003097;28;20587;-88
2021/12/13 15:33:07;;;;;;;10.50;9.40;;;7.70;97.80;;;;;;5004707;28;20203;-87
2021/12/13 15:35:40;;;;;;;13.63;11.30;;;7.70;98.20;;;;;;5004422;28;20346;-89
2021/12/13 15:38:13;;;;;;;13.68;12.13;;;7.70;97.80;;;;;;5024977;28;20203;-89
2021/12/13 15:40:43;;;;;;;13.95;10.68;;;7.70;98.00;;;;;;5024705;28;20204;-88
2021/12/13 15:46:44;;;;;;;12.73;11.03;;;7.70;98.10;;;;;;5024864;28;20225;-86
2021/12/13 15:49:33;;;;;;;15.30;10.82;;;7.50;98.20;;;;;;5003081;28;20592;-86
2021/12/13 15:52:05;;;;;;;12.77;11.18;;;7.30;98.80;;;;;;5020649;28;20203;-94
2021/12/13 15:54:34;;;;;;;12.27;10.73;;;7.30;99.10;;;;;;5019093;28;20526;-92
2021/12/13 15:57:53;;;;;;;16.77;11.00;;;7.30;99.50;;;;;;5016854;28;20225;-92
2021/12/13 16:00:20;;;;;;;14.10;11.73;;;7.30;99.50;;;;;;4997452;28;20235;-92
2021/12/13 16:02:49;;;;;;;14.80;11.83;;;7.30;99.40;;;;;;4998157;28;20247;-91
2021/12/13 16:05:19;;;;;;;13.05;11.05;;;7.30;99.50;;;;;;4944330;28;20207;-88
2021/12/13 16:07:48;;;;;;;13.27;10.98;;;7.40;99.60;;;;;;5016237;28;20550;-91
2021/12/13 16:13:10;;;;;;;16.60;12.63;;;7.40;99.40;;;;;;4994757;28;20213;-91
2021/12/13 16:15:38;;;;;;;16.17;11.30;;;7.30;99.00;;;;;;5014934;28;20210;-90
2021/12/13 16:18:10;;;;;;;16.27;12.65;;;7.30;99.20;;;;;;5016155;28;20234;-91
2021/12/13 16:20:40;;;;;;;19.48;13.20;;;7.20;99.40;;;;;;5032201;28;20206;-88
2021/12/13 16:23:19;;;;;;;17.90;11.95;;;7.20;99.50;;;;;;5030091;28;20257;-86
2021/12/13 16:25:49;;;;;;;15.27;11.23;;;7.30;99.70;;;;;;5021629;28;20534;-89
2021/12/13 16:28:24;;;;;;;20.37;12.50;;;7.40;99.30;;;;;;5013972;28;20202;-86
2021/12/13 16:35:07;;;;;;;17.60;12.82;;;7.30;99.20;;;;;;5044431;28;20225;-89
2021/12/13 16:37:36;;;;;;;19.07;11.60;;;7.30;99.10;;;;;;5011576;28;20195;-88
2021/12/13 16:40:05;;;;;;;21.03;12.23;;;7.30;99.10;;;;;;5004303;28;20237;-87
2021/12/13 16:54:06;;;;;;;19.80;12.93;;;6.90;99.80;;;;;;5021360;28;20696;-91
2021/12/13 16:59:59;;;;;;;18.37;11.70;;;6.80;99.90;;;;;;5022440;28;20203;-90
2021/12/13 17:03:08;;;;;;;30.37;12.80;;;6.80;99.50;;;;;;5017903;28;20572;-88
2021/12/13 17:05:40;;;;;;;14.10;10.90;;;6.90;99.90;;;;;;5020049;28;20199;-89
2021/12/13 17:08:16;;;;;;;18.73;12.17;;;6.80;99.90;;;;;;4988024;28;20200;-88
2021/12/13 17:14:18;;;;;;;18.42;12.90;;;6.90;99.90;;;;;;5019945;28;20263;-88
2021/12/13 17:16:55;;;;;;;20.57;12.73;;;6.80;99.90;;;;;;5015237;28;20257;-88
2021/12/13 17:19:49;;;;;;;14.90;11.40;;;6.70;99.90;;;;;;5021932;28;20235;-88
2021/12/13 17:22:17;;;;;;;15.77;11.63;;;6.80;99.90;;;;;;5020440;28;20262;-88
2021/12/13 17:28:07;;;;;;;15.83;11.23;;;6.70;99.90;;;;;;5013751;28;20294;-87
2021/12/13 17:30:49;;;;;;;12.60;9.93;;;6.70;99.90;;;;;;4983573;28;20215;-86
2021/12/13 17:33:16;;;;;;;16.07;10.40;;;6.70;99.80;;;;;;5016654;28;20227;-89
2021/12/13 17:35:47;;;;;;;13.30;8.90;;;6.70;99.90;;;;;;5004251;28;20203;-87
2021/12/13 17:38:17;;;;;;;11.87;9.17;;;6.80;99.90;;;;;;5004686;28;20199;-87
2021/12/13 17:40:50;;;;;;;11.03;7.53;;;6.90;99.60;;;;;;5023162;28;20187;-86
2021/12/13 18:17:42;;;;;;;15.90;8.37;;;6.90;99.00;;;;;;5097445;22;20244;-88
2021/12/13 18:23:10;;;;;;;12.00;8.07;;;6.80;98.60;;;;;;5041811;28;20348;-88
2021/12/13 18:25:46;;;;;;;11.35;8.40;;;6.80;98.90;;;;;;5036274;28;20252;-89
2021/12/13 18:28:17;;;;;;;16.83;9.23;;;6.80;98.70;;;;;;5045867;28;20202;-86
2021/12/13 18:31:36;;;;;;;14.47;8.93;;;6.80;98.60;;;;;;5037915;28;20194;-85
2021/12/13 18:34:06;;;;;;;16.57;8.90;;;6.70;98.70;;;;;;5016200;28;20839;-85
2021/12/13 18:36:59;;;;;;;12.93;7.73;;;6.70;99.00;;;;;;5037992;28;20261;-85
2021/12/13 18:39:49;;;;;;;12.50;8.60;;;6.80;99.00;;;;;;5021848;28;20705;-85
2021/12/13 18:42:25;;;;;;;13.50;8.93;;;6.80;98.80;;;;;;5038813;28;20230;-89
2021/12/13 18:45:07;;;;;;;19.33;9.32;;;6.80;98.80;;;;;;5021148;28;20225;-86
2021/12/13 18:50:46;;;;;;;20.60;9.85;;;6.60;98.90;;;;;;5036183;28;20230;-89
2021/12/13 18:53:20;;;;;;;17.70;9.93;;;6.50;98.90;;;;;;5034147;28;20189;-88
2021/12/13 18:56:04;;;;;;;20.27;9.83;;;6.50;99.20;;;;;;5037418;28;20285;-90
2021/12/13 18:58:34;;;;;;;17.83;9.50;;;6.50;98.80;;;;;;5033421;28;20677;-93
